Time;durP1;ratioP1;P1;durP2;ratioP2;P2;SDS_P1;SDS_P2;PMS_P1;PMS_P2;Temp;Humidity;BMP_temperature;BMP_pressure;BME280_temperature;BME280_humidity;BME280_pressure;Samples;Min_cycle;Max_cycle;Signal;HPM_P1;HPM_P2
2022/05/24 00:01:29;;;;;;;14.05;6.22;;;13.60;99.90;;;;;;4956912;29;20047;-78
2022/05/24 00:03:56;;;;;;;17.20;8.00;;;13.60;99.90;;;;;;4957079;29;20043;-78
2022/05/24 00:06:25;;;;;;;16.70;8.73;;;13.50;99.90;;;;;;4957115;28;20059;-75
2022/05/24 00:08:51;;;;;;;20.83;11.10;;;13.50;99.90;;;;;;4959414;28;20054;-76
2022/05/24 00:11:18;;;;;;;20.95;11.98;;;13.60;99.90;;;;;;4957780;29;20436;-76
2022/05/24 00:13:43;;;;;;;26.10;12.18;;;13.60;99.90;;;;;;4958789;29;20178;-76
2022/05/24 00:16:09;;;;;;;19.63;9.52;;;13.60;99.90;;;;;;4960835;28;20082;-76
2022/05/24 00:18:35;;;;;;;18.20;10.18;;;13.60;99.90;;;;;;4960626;29;20055;-76
2022/05/24 00:21:03;;;;;;;22.10;10.85;;;13.60;99.90;;;;;;4941975;29;20055;-76
2022/05/24 00:23:29;;;;;;;26.25;12.38;;;13.60;99.90;;;;;;4974120;28;20048;-76
2022/05/24 00:26:00;;;;;;;19.50;10.82;;;13.60;99.90;;;;;;4959083;28;20047;-77
2022/05/24 00:28:28;;;;;;;23.60;10.68;;;13.50;99.90;;;;;;4958458;29;20154;-74
2022/05/24 00:30:54;;;;;;;20.27;10.43;;;13.50;99.90;;;;;;4957725;28;20059;-74
2022/05/24 00:33:23;;;;;;;23.88;10.75;;;13.50;99.90;;;;;;4972545;28;20098;-75
2022/05/24 00:35:50;;;;;;;20.10;11.27;;;13.40;99.90;;;;;;4957332;29;20047;-75
2022/05/24 00:38:33;;;;;;;19.02;10.60;;;13.40;99.90;;;;;;4956779;29;20472;-78
2022/05/24 00:41:02;;;;;;;25.92;10.85;;;13.30;99.90;;;;;;4957046;29;20051;-77
2022/05/24 00:43:36;;;;;;;19.83;10.70;;;13.40;99.90;;;;;;4956583;29;20353;-75
2022/05/24 00:46:15;;;;;;;19.65;10.00;;;13.40;99.90;;;;;;4956754;29;20047;-77
2022/05/24 00:49:04;;;;;;;20.92;10.93;;;13.30;99.90;;;;;;4958389;29;20376;-74
2022/05/24 00:51:48;;;;;;;22.15;10.80;;;13.30;99.90;;;;;;4957724;28;20521;-77
2022/05/24 00:54:14;;;;;;;19.45;9.98;;;13.30;99.90;;;;;;4957713;29;20051;-79
2022/05/24 00:57:02;;;;;;;19.42;9.95;;;13.30;99.90;;;;;;4957486;28;20047;-78
2022/05/24 00:59:52;;;;;;;20.40;9.60;;;13.20;99.90;;;;;;4959176;29;20079;-77
2022/05/24 01:02:18;;;;;;;18.90;9.80;;;13.10;99.90;;;;;;4960049;29;20061;-75
2022/05/24 01:04:44;;;;;;;17.67;9.63;;;13.00;99.90;;;;;;4959996;28;20046;-77
2022/05/24 01:07:10;;;;;;;23.23;9.60;;;12.90;99.90;;;;;;4959043;29;20046;-77
2022/05/24 01:09:41;;;;;;;22.63;9.85;;;12.90;99.90;;;;;;4957441;28;20067;-76
2022/05/24 01:12:24;;;;;;;21.17;9.52;;;12.80;99.90;;;;;;4956957;29;20086;-77
2022/05/24 01:14:52;;;;;;;19.45;9.10;;;12.80;99.90;;;;;;4940390;29;20052;-77
2022/05/24 01:17:18;;;;;;;20.60;9.75;;;12.80;99.90;;;;;;4956056;29;20055;-75
2022/05/24 01:19:46;;;;;;;18.70;9.40;;;12.70;99.90;;;;;;4956574;28;20424;-76
2022/05/24 01:22:32;;;;;;;18.67;9.70;;;12.70;99.90;;;;;;4956963;29;20047;-77
2022/05/24 01:25:09;;;;;;;19.73;9.57;;;12.70;99.90;;;;;;4958961;29;20105;-76
2022/05/24 01:27:36;;;;;;;20.17;9.68;;;12.70;99.90;;;;;;4957655;28;20479;-76
2022/05/24 01:30:04;;;;;;;21.77;10.13;;;12.70;99.90;;;;;;4956615;29;20437;-76
2022/05/24 01:38:02;;;;;;;22.05;11.52;;;12.70;99.90;;;;;;4956765;28;20066;-77
2022/05/24 01:40:29;;;;;;;24.20;11.95;;;12.80;99.90;;;;;;4956599;29;20055;-75
2022/05/24 01:42:55;;;;;;;22.60;11.95;;;12.80;99.90;;;;;;4971683;28;20055;-76
2022/05/24 01:45:31;;;;;;;25.52;12.52;;;12.80;99.90;;;;;;4956443;29;20054;-77
2022/05/24 01:48:05;;;;;;;28.33;12.80;;;12.80;99.90;;;;;;4956886;28;20388;-76
2022/05/24 01:50:33;;;;;;;28.77;13.50;;;12.80;99.90;;;;;;4955410;29;20043;-76
2022/05/24 01:53:05;;;;;;;31.63;14.52;;;12.80;99.90;;;;;;4955793;29;20051;-76
2022/05/24 01:55:38;;;;;;;35.28;16.40;;;12.90;99.90;;;;;;4956925;29;20074;-75
2022/05/24 01:58:10;;;;;;;38.63;16.75;;;12.90;99.90;;;;;;4971697;28;20379;-77
2022/05/24 02:00:35;;;;;;;38.05;17.42;;;13.00;99.90;;;;;;4956517;28;20043;-78
2022/05/24 02:03:02;;;;;;;37.20;17.58;;;13.00;99.90;;;;;;4955605;29;20490;-78
2022/05/24 02:05:30;;;;;;;36.95;17.83;;;13.10;99.90;;;;;;4956189;29;20419;-76
2022/05/24 02:07:56;;;;;;;37.42;18.15;;;13.10;99.90;;;;;;4955128;29;20516;-75
2022/05/24 02:10:21;;;;;;;37.28;17.60;;;13.10;99.90;;;;;;4956288;29;20134;-76
2022/05/24 02:12:54;;;;;;;44.55;18.85;;;13.20;99.90;;;;;;4938904;29;20051;-75
2022/05/24 02:15:26;;;;;;;43.60;19.50;;;13.20;99.90;;;;;;4955979;29;20121;-75
2022/05/24 02:17:59;;;;;;;44.90;20.63;;;13.20;99.90;;;;;;4955883;28;20055;-77
2022/05/24 02:20:31;;;;;;;45.45;20.27;;;13.20;99.90;;;;;;4956365;29;20128;-76
2022/05/24 02:22:57;;;;;;;45.88;20.63;;;13.20;99.90;;;;;;4955056;29;20512;-78
2022/05/24 02:25:33;;;;;;;47.03;22.83;;;13.30;99.90;;;;;;4940071;29;20388;-79
2022/05/24 02:27:58;;;;;;;45.90;20.88;;;13.30;99.90;;;;;;4956439;28;20047;-76
2022/05/24 02:30:27;;;;;;;42.90;20.58;;;13.30;99.90;;;;;;4954790;28;20066;-76
2022/05/24 02:32:52;;;;;;;45.08;21.10;;;13.30;99.90;;;;;;4955541;29;20050;-75
2022/05/24 02:35:18;;;;;;;44.35;21.20;;;13.30;99.90;;;;;;4955314;29;20055;-78
2022/05/24 02:37:44;;;;;;;50.55;21.92;;;13.30;99.90;;;;;;4954545;29;20411;-76
2022/05/24 02:42:56;;;;;;;44.15;21.00;;;13.30;99.90;;;;;;4955914;29;20404;-76
2022/05/24 02:45:22;;;;;;;46.85;22.08;;;13.30;99.90;;;;;;4955289;28;20047;-76
2022/05/24 02:47:49;;;;;;;47.88;23.23;;;13.30;99.90;;;;;;4970130;28;20102;-76
2022/05/24 02:50:14;;;;;;;43.42;22.95;;;13.40;99.90;;;;;;4938297;29;20067;-76
2022/05/24 02:52:41;;;;;;;45.85;21.50;;;13.40;99.90;;;;;;4955258;28;20055;-74
2022/05/24 02:55:09;;;;;;;46.17;22.02;;;13.40;99.90;;;;;;4954943;29;20047;-74
2022/05/24 02:57:36;;;;;;;45.75;21.15;;;13.40;99.90;;;;;;4954096;29;20055;-76
2022/05/24 03:00:04;;;;;;;41.47;21.08;;;13.40;99.90;;;;;;4954769;29;20054;-76
2022/05/24 03:02:29;;;;;;;47.03;22.92;;;13.40;99.90;;;;;;4955311;28;20055;-77
2022/05/24 03:04:55;;;;;;;45.28;22.63;;;13.50;99.90;;;;;;4953538;29;20122;-75
2022/05/24 03:10:05;;;;;;;40.72;20.67;;;13.40;99.90;;;;;;4955489;29;20055;-77
2022/05/24 03:15:15;;;;;;;42.58;20.63;;;13.50;99.90;;;;;;4957057;29;20055;-74
2022/05/24 03:17:41;;;;;;;41.70;19.13;;;13.60;99.90;;;;;;4954996;28;20063;-73
2022/05/24 03:20:07;;;;;;;34.67;17.50;;;13.60;99.90;;;;;;4953994;29;20145;-75
2022/05/24 03:22:33;;;;;;;42.15;19.63;;;13.60;99.90;;;;;;4955892;29;20086;-74
2022/05/24 03:24:59;;;;;;;37.10;18.98;;;13.70;99.90;;;;;;4955118;28;20114;-74
2022/05/24 03:27:24;;;;;;;45.45;21.10;;;13.60;99.90;;;;;;4955990;28;20102;-74
2022/05/24 03:29:50;;;;;;;39.50;21.65;;;13.60;99.90;;;;;;4954835;28;20047;-73
2022/05/24 03:32:18;;;;;;;43.78;21.70;;;13.60;99.90;;;;;;4953501;29;20073;-74
2022/05/24 03:34:43;;;;;;;41.15;19.38;;;13.60;99.90;;;;;;4953417;29;20460;-74
2022/05/24 03:37:09;;;;;;;39.88;19.05;;;13.60;99.90;;;;;;4969317;28;20173;-73
2022/05/24 03:39:35;;;;;;;38.40;19.85;;;13.70;99.90;;;;;;4954636;28;20094;-73
2022/05/24 03:42:02;;;;;;;41.47;19.85;;;13.60;99.90;;;;;;4956478;28;20039;-74
2022/05/24 03:44:28;;;;;;;38.85;19.50;;;13.60;99.90;;;;;;4960553;28;20117;-74
2022/05/24 03:46:54;;;;;;;41.45;19.65;;;13.50;99.90;;;;;;4959929;29;20121;-73
2022/05/24 03:49:21;;;;;;;38.78;18.27;;;13.60;99.90;;;;;;4960192;29;20039;-74
2022/05/24 03:51:47;;;;;;;40.67;19.40;;;13.60;99.90;;;;;;4975771;28;20411;-74
2022/05/24 03:54:12;;;;;;;45.17;19.52;;;13.60;99.90;;;;;;4960802;29;20047;-74
2022/05/24 03:57:59;;;;;;;41.33;19.65;;;13.60;99.90;;;;;;4960542;28;20047;-73
2022/05/24 03:59:25;;;;;;;40.22;18.02;;;13.60;99.90;;;;;;4961553;28;20467;-74
2022/05/24 04:01:51;;;;;;;37.83;18.53;;;13.50;99.90;;;;;;4962444;28;20099;-75
2022/05/24 04:04:17;;;;;;;41.67;20.05;;;13.40;99.90;;;;;;4961061;28;20039;-75
2022/05/24 04:06:43;;;;;;;39.78;17.05;;;13.50;99.90;;;;;;4960828;28;20054;-74
2022/05/24 04:09:08;;;;;;;42.28;20.65;;;13.50;99.90;;;;;;4961176;28;20534;-74
2022/05/24 04:11:34;;;;;;;43.45;19.70;;;13.50;99.90;;;;;;4959676;29;20401;-77
2022/05/24 04:14:00;;;;;;;44.13;20.15;;;13.40;99.90;;;;;;4960489;28;20507;-75
2022/05/24 04:16:26;;;;;;;43.53;20.55;;;13.50;99.90;;;;;;4960351;28;20078;-75
2022/05/24 04:18:52;;;;;;;43.28;20.67;;;13.50;99.90;;;;;;4960749;28;20059;-74
2022/05/24 04:21:18;;;;;;;44.40;21.45;;;13.50;99.90;;;;;;4960559;29;20059;-77
2022/05/24 04:23:44;;;;;;;44.83;19.27;;;13.50;99.90;;;;;;4962427;28;20425;-74
2022/05/24 04:26:09;;;;;;;43.88;21.30;;;13.50;99.90;;;;;;4960523;29;20510;-77
2022/05/24 04:28:35;;;;;;;48.13;21.17;;;13.60;99.90;;;;;;4960643;28;20043;-74
2022/05/24 04:31:01;;;;;;;40.28;19.35;;;13.60;99.90;;;;;;4960460;28;20062;-75
2022/05/24 04:33:27;;;;;;;42.85;20.00;;;13.60;99.90;;;;;;4943170;28;20051;-73
2022/05/24 04:35:52;;;;;;;49.67;21.67;;;13.60;99.90;;;;;;4960338;28;20094;-74
2022/05/24 04:38:18;;;;;;;47.53;21.23;;;13.60;99.90;;;;;;4943078;29;20058;-78
2022/05/24 04:43:28;;;;;;;45.15;20.85;;;13.60;99.90;;;;;;4960740;29;20130;-75
2022/05/24 04:45:55;;;;;;;42.92;21.10;;;13.60;99.90;;;;;;4959896;28;20441;-75
2022/05/24 04:48:21;;;;;;;39.30;17.67;;;13.60;99.90;;;;;;4975772;28;20047;-75
2022/05/24 04:50:52;;;;;;;38.13;17.85;;;13.60;99.90;;;;;;4959484;29;20050;-73
2022/05/24 04:53:18;;;;;;;44.92;19.27;;;13.60;99.90;;;;;;4959227;28;20161;-76
2022/05/24 04:55:43;;;;;;;37.53;18.23;;;13.50;99.90;;;;;;4941675;29;20090;-76
2022/05/24 04:58:11;;;;;;;38.95;18.05;;;13.50;99.90;;;;;;4957442;29;20406;-75
2022/05/24 05:00:38;;;;;;;35.63;16.23;;;13.50;99.90;;;;;;4957392;29;20134;-76
2022/05/24 05:03:13;;;;;;;30.80;13.52;;;13.50;99.90;;;;;;4956078;29;20102;-76
2022/05/24 05:05:39;;;;;;;34.13;15.10;;;13.40;99.90;;;;;;4956123;29;20349;-75
2022/05/24 05:08:07;;;;;;;32.60;14.65;;;13.40;99.90;;;;;;4957899;29;20043;-75
2022/05/24 05:10:36;;;;;;;31.02;13.90;;;13.40;99.90;;;;;;4957059;29;20509;-75
2022/05/24 05:13:04;;;;;;;35.33;14.32;;;13.30;99.90;;;;;;4957480;29;20415;-76
2022/05/24 05:15:31;;;;;;;28.85;14.48;;;13.30;99.90;;;;;;4942964;29;20126;-77
2022/05/24 05:18:11;;;;;;;28.92;13.38;;;13.20;99.90;;;;;;4960115;29;20146;-76
2022/05/24 05:20:39;;;;;;;32.10;14.05;;;13.20;99.90;;;;;;4959615;28;20055;-76
2022/05/24 05:23:13;;;;;;;28.08;13.30;;;13.20;99.90;;;;;;4957475;29;20051;-75
2022/05/24 05:25:41;;;;;;;34.33;14.07;;;13.30;99.90;;;;;;4972317;28;20129;-75
2022/05/24 05:28:07;;;;;;;32.30;13.48;;;13.30;99.90;;;;;;4956947;29;20124;-75
2022/05/24 05:33:18;;;;;;;32.20;14.23;;;13.30;99.90;;;;;;4957630;29;20357;-75
2022/05/24 05:35:46;;;;;;;36.00;16.50;;;13.30;99.90;;;;;;4956946;29;20133;-75
2022/05/24 05:38:12;;;;;;;28.52;13.43;;;13.30;99.90;;;;;;4939658;29;20055;-75
2022/05/24 05:40:38;;;;;;;32.90;15.60;;;13.40;99.90;;;;;;4956256;29;20043;-77
2022/05/24 05:43:04;;;;;;;32.23;14.87;;;13.40;99.90;;;;;;4955974;29;20043;-75
2022/05/24 05:45:30;;;;;;;28.43;14.47;;;13.50;99.90;;;;;;4956000;29;20134;-75
2022/05/24 05:47:56;;;;;;;40.33;16.00;;;13.50;99.90;;;;;;4956587;29;20440;-74
2022/05/24 05:50:28;;;;;;;35.28;15.85;;;13.50;99.90;;;;;;4942295;29;20049;-76
2022/05/24 05:52:54;;;;;;;32.08;15.60;;;13.60;99.90;;;;;;4955818;29;20047;-76
2022/05/24 05:55:19;;;;;;;35.03;15.75;;;13.50;99.90;;;;;;4957386;29;20081;-73
2022/05/24 05:57:46;;;;;;;32.38;15.30;;;13.60;99.90;;;;;;4958405;28;20114;-75
2022/05/24 06:00:12;;;;;;;36.33;16.77;;;13.50;99.90;;;;;;4956673;29;20055;-76
2022/05/24 06:02:38;;;;;;;32.05;15.77;;;13.60;99.90;;;;;;4973226;28;20070;-75
2022/05/24 06:05:06;;;;;;;33.20;15.85;;;13.60;99.90;;;;;;4939828;29;20452;-75
2022/05/24 06:07:32;;;;;;;31.38;15.95;;;13.50;99.90;;;;;;4972163;28;20051;-76
2022/05/24 06:09:58;;;;;;;26.15;15.32;;;13.50;99.90;;;;;;4972322;28;20468;-78
2022/05/24 06:12:25;;;;;;;36.85;15.60;;;13.50;99.90;;;;;;4956465;28;20444;-75
2022/05/24 06:14:50;;;;;;;35.03;15.40;;;13.60;99.90;;;;;;4957343;29;20045;-77
2022/05/24 06:17:16;;;;;;;34.08;15.02;;;13.60;99.90;;;;;;4956959;29;20498;-76
2022/05/24 06:19:44;;;;;;;30.80;15.85;;;13.70;99.90;;;;;;4956448;29;20604;-76
2022/05/24 06:22:09;;;;;;;;;;;13.70;99.90;;;;;;4956488;28;20087;-75
2022/05/24 06:24:35;;;;;;;32.17;15.50;;;13.80;99.90;;;;;;4955690;29;19923;-77
2022/05/24 06:27:02;;;;;;;32.05;15.20;;;13.70;99.90;;;;;;4956585;28;20047;-76
2022/05/24 06:29:30;;;;;;;34.05;16.05;;;13.70;99.90;;;;;;4955903;29;20412;-76
2022/05/24 06:31:56;;;;;;;34.28;14.55;;;13.80;99.90;;;;;;4971868;28;20047;-78
2022/05/24 06:34:21;;;;;;;24.77;13.30;;;13.80;99.90;;;;;;4939460;29;20102;-77
2022/05/24 06:36:47;;;;;;;24.85;12.45;;;13.90;99.90;;;;;;4939480;29;20047;-78
2022/05/24 06:39:13;;;;;;;31.38;14.20;;;13.90;99.90;;;;;;4956616;29;20047;-77
2022/05/24 06:41:39;;;;;;;32.88;14.23;;;13.90;99.90;;;;;;4972257;28;20062;-78
2022/05/24 06:44:05;;;;;;;27.50;13.77;;;13.90;99.90;;;;;;4957485;28;20082;-77
2022/05/24 06:46:31;;;;;;;29.45;13.75;;;14.00;99.90;;;;;;4956222;29;20519;-76
2022/05/24 06:48:57;;;;;;;25.70;13.68;;;14.00;99.90;;;;;;4940900;29;20062;-76
2022/05/24 06:51:23;;;;;;;31.88;13.38;;;14.10;99.90;;;;;;4957120;29;20051;-78
2022/05/24 06:53:50;;;;;;;29.43;14.30;;;14.10;99.90;;;;;;4959058;28;20047;-76
2022/05/24 06:56:16;;;;;;;;;;;14.20;99.90;;;;;;4957778;29;20447;-76
2022/05/24 06:58:43;;;;;;;28.17;12.48;;;14.20;99.90;;;;;;4955836;29;19929;-77
2022/05/24 07:03:56;;;;;;;27.20;12.13;;;14.10;99.90;;;;;;4957761;29;20054;-77
2022/05/24 07:06:22;;;;;;;26.30;12.63;;;14.10;99.90;;;;;;4956843;29;20475;-76
2022/05/24 07:08:49;;;;;;;29.60;12.05;;;14.10;99.90;;;;;;4958182;29;20118;-77
2022/05/24 07:11:16;;;;;;;;;;;14.20;99.90;;;;;;4959488;29;20109;-74
2022/05/24 07:13:42;;;;;;;;;;;14.20;99.90;;;;;;4957940;29;19969;-74
2022/05/24 07:16:08;;;;;;;30.23;11.13;;;14.20;99.90;;;;;;4939302;28;19941;-78
2022/05/24 07:18:35;;;;;;;26.67;12.77;;;14.30;99.90;;;;;;4954711;29;20066;-77
2022/05/24 07:21:01;;;;;;;28.55;13.23;;;14.30;99.90;;;;;;4972309;28;20106;-78
2022/05/24 07:23:27;;;;;;;26.40;12.95;;;14.30;99.90;;;;;;4955562;29;20067;-77
2022/05/24 07:25:55;;;;;;;29.35;12.45;;;14.30;99.90;;;;;;4924249;29;20150;-78
2022/05/24 07:28:23;;;;;;;30.48;13.38;;;14.10;99.90;;;;;;4955524;29;20043;-76
2022/05/24 07:30:49;;;;;;;21.42;11.50;;;14.00;99.90;;;;;;4954937;29;20061;-77
2022/05/24 07:33:16;;;;;;;22.75;11.25;;;14.00;99.90;;;;;;4954919;29;20078;-75
2022/05/24 07:35:43;;;;;;;22.92;10.40;;;14.00;99.90;;;;;;4956949;29;20058;-78
2022/05/24 07:38:10;;;;;;;26.27;10.60;;;14.00;99.90;;;;;;4955560;28;20059;-76
2022/05/24 07:46:09;;;;;;;24.10;11.70;;;13.90;99.90;;;;;;4955050;29;20048;-75
2022/05/24 07:48:35;;;;;;;23.63;10.90;;;14.00;99.90;;;;;;4970384;28;20058;-77
2022/05/24 07:51:02;;;;;;;19.60;9.45;;;14.10;99.90;;;;;;4954469;29;20043;-76
2022/05/24 07:53:28;;;;;;;21.65;11.23;;;14.20;99.90;;;;;;4954594;29;20043;-76
2022/05/24 07:55:55;;;;;;;18.30;10.60;;;14.30;99.90;;;;;;4955503;29;20055;-78
2022/05/24 07:58:21;;;;;;;22.38;9.35;;;14.40;99.90;;;;;;4957282;29;20101;-76
2022/05/24 08:00:47;;;;;;;22.77;9.77;;;14.60;99.90;;;;;;4957812;28;20082;-76
2022/05/24 08:03:14;;;;;;;19.38;10.48;;;14.60;99.90;;;;;;4956706;29;20067;-75
2022/05/24 08:05:40;;;;;;;22.30;10.57;;;14.80;99.90;;;;;;4956571;28;20192;-78
2022/05/24 08:08:07;;;;;;;19.65;10.02;;;14.80;99.90;;;;;;4955094;29;20306;-77
2022/05/24 08:10:36;;;;;;;22.52;9.73;;;15.00;99.90;;;;;;4955567;29;20051;-77
2022/05/24 08:13:09;;;;;;;24.63;11.00;;;15.30;99.90;;;;;;4956364;29;20062;-77
2022/05/24 08:15:35;;;;;;;19.15;9.90;;;15.50;99.90;;;;;;4955156;29;20079;-77
2022/05/24 08:18:02;;;;;;;18.60;8.53;;;15.80;99.90;;;;;;4956553;29;20059;-75
2022/05/24 08:20:32;;;;;;;22.60;9.02;;;15.80;99.90;;;;;;4957468;28;20182;-76
2022/05/24 08:22:58;;;;;;;15.00;7.68;;;15.80;99.90;;;;;;4958785;29;20094;-76
2022/05/24 08:25:25;;;;;;;15.97;8.40;;;16.00;99.90;;;;;;4957917;28;20098;-75
2022/05/24 08:27:51;;;;;;;;;;;16.00;99.90;;;;;;4957734;28;20694;-75
2022/05/24 08:30:18;;;;;;;17.95;8.02;;;16.00;99.90;;;;;;4977036;28;19978;-75
2022/05/24 08:32:46;;;;;;;13.55;5.30;;;15.90;99.90;;;;;;4960376;29;20129;-75
2022/05/24 08:35:14;;;;;;;14.80;6.60;;;16.00;99.90;;;;;;4962511;29;20054;-80
2022/05/24 08:37:42;;;;;;;16.17;6.95;;;16.00;99.90;;;;;;4960672;28;20059;-78
2022/05/24 08:40:10;;;;;;;17.33;6.88;;;16.30;99.90;;;;;;4961800;29;20055;-78
2022/05/24 08:43:06;;;;;;;18.73;6.57;;;16.40;99.90;;;;;;4963762;28;20374;-78
2022/05/24 08:48:29;;;;;;;10.77;5.78;;;16.40;99.90;;;;;;4958723;28;20087;-76
2022/05/24 08:51:04;;;;;;;16.58;6.00;;;16.30;99.90;;;;;;4959107;29;20508;-77
2022/05/24 08:53:42;;;;;;;11.70;5.97;;;16.10;99.90;;;;;;4958251;29;20423;-74
2022/05/24 08:56:12;;;;;;;18.23;6.30;;;16.20;99.90;;;;;;4958188;29;20130;-76
2022/05/24 08:58:42;;;;;;;13.65;6.15;;;16.20;99.90;;;;;;4957331;28;20098;-76
2022/05/24 09:01:29;;;;;;;11.88;5.95;;;16.40;99.90;;;;;;4958106;28;20043;-76
2022/05/24 09:03:55;;;;;;;12.75;5.00;;;16.60;99.90;;;;;;4957988;28;20123;-75
2022/05/24 09:06:30;;;;;;;8.05;5.53;;;16.80;99.90;;;;;;4941446;29;20090;-74
2022/05/24 09:09:51;;;;;;;13.38;5.72;;;16.60;99.90;;;;;;4957742;29;20046;-76
2022/05/24 09:12:19;;;;;;;11.43;5.20;;;16.40;99.90;;;;;;4943043;29;20059;-75
2022/05/24 09:14:45;;;;;;;12.00;5.43;;;16.30;99.90;;;;;;4959220;29;20042;-74
2022/05/24 09:17:37;;;;;;;13.35;5.75;;;16.10;99.90;;;;;;4959253;28;20057;-75
2022/05/24 09:20:34;;;;;;;10.57;4.93;;;15.90;99.90;;;;;;4960019;29;20389;-75
2022/05/24 09:23:15;;;;;;;11.70;5.97;;;15.90;99.90;;;;;;4959338;28;20377;-75
2022/05/24 09:26:01;;;;;;;11.70;5.45;;;15.50;99.90;;;;;;4962569;29;20395;-77
2022/05/24 09:28:45;;;;;;;15.50;5.18;;;15.60;99.90;;;;;;4964954;29;20054;-75
2022/05/24 09:31:26;;;;;;;13.98;5.05;;;15.90;99.90;;;;;;4967659;29;20170;-77
2022/05/24 09:34:01;;;;;;;10.70;5.65;;;16.10;99.90;;;;;;4962789;29;20114;-75
2022/05/24 09:36:37;;;;;;;11.65;5.32;;;16.20;99.90;;;;;;4942304;29;20071;-76
2022/05/24 09:39:25;;;;;;;11.82;4.82;;;16.40;99.90;;;;;;4959126;28;20134;-75
2022/05/24 09:41:55;;;;;;;11.63;4.05;;;16.40;99.90;;;;;;4957398;29;20070;-76
2022/05/24 09:44:21;;;;;;;8.55;4.57;;;16.50;99.90;;;;;;4957582;28;20082;-76
2022/05/24 09:46:47;;;;;;;10.37;4.53;;;16.70;99.90;;;;;;4957395;29;20051;-74
2022/05/24 09:49:23;;;;;;;6.47;3.58;;;16.80;99.90;;;;;;4956628;28;20279;-77
2022/05/24 09:51:52;;;;;;;7.47;3.73;;;17.00;99.90;;;;;;4956592;29;20108;-77
2022/05/24 09:54:21;;;;;;;5.97;1.92;;;16.90;99.90;;;;;;4956185;29;20105;-77
2022/05/24 09:57:08;;;;;;;4.20;1.40;;;17.00;99.90;;;;;;4956670;29;20139;-79
2022/05/24 09:59:36;;;;;;;4.18;1.40;;;17.00;99.90;;;;;;4956888;29;20134;-76
2022/05/24 10:02:25;;;;;;;7.18;2.22;;;16.90;99.90;;;;;;4957446;29;20106;-77
2022/05/24 10:04:51;;;;;;;5.28;1.40;;;16.60;99.90;;;;;;4956845;29;20063;-74
2022/05/24 10:07:32;;;;;;;9.45;1.60;;;16.50;99.90;;;;;;4956126;29;20203;-74
2022/05/24 10:10:14;;;;;;;6.93;1.55;;;16.20;99.90;;;;;;4956793;29;20058;-75
2022/05/24 10:12:58;;;;;;;3.42;1.52;;;16.20;99.90;;;;;;4958226;28;20062;-75
2022/05/24 10:15:42;;;;;;;5.50;1.00;;;16.30;99.90;;;;;;4956233;29;20052;-76
2022/05/24 10:18:33;;;;;;;5.70;1.63;;;16.20;99.90;;;;;;4955582;28;20069;-75
2022/05/24 10:21:18;;;;;;;6.57;1.85;;;15.70;99.90;;;;;;4957193;29;20059;-73
2022/05/24 10:23:53;;;;;;;3.15;1.67;;;15.70;99.90;;;;;;4955912;29;20066;-74
2022/05/24 10:26:56;;;;;;;4.95;1.60;;;15.40;99.90;;;;;;4956247;29;20043;-75
2022/05/24 10:29:53;;;;;;;5.47;1.50;;;15.50;99.90;;;;;;4955658;29;20098;-75
2022/05/24 10:38:41;;;;;;;3.22;0.73;;;15.30;99.90;;;;;;4956253;29;20050;-73
2022/05/24 10:41:37;;;;;;;3.17;0.88;;;15.40;99.90;;;;;;4971322;28;20047;-75
2022/05/24 10:44:25;;;;;;;2.00;0.90;;;15.50;99.90;;;;;;4939968;29;20471;-75
2022/05/24 10:47:18;;;;;;;4.28;1.98;;;15.70;99.90;;;;;;4955831;29;20058;-77
2022/05/24 10:49:48;;;;;;;3.95;1.50;;;15.40;99.90;;;;;;4956915;29;20047;-75
2022/05/24 10:52:45;;;;;;;6.97;1.55;;;15.30;99.90;;;;;;4956170;28;20051;-75
2022/05/24 10:55:25;;;;;;;;;;;15.20;99.90;;;;;;4955693;29;20460;-77
2022/05/24 10:58:04;;;;;;;1.90;0.30;;;15.10;99.90;;;;;;4955462;28;19922;-76
2022/05/24 11:00:36;;;;;;;1.67;0.30;;;14.90;99.90;;;;;;4954877;29;20361;-77
2022/05/24 11:03:17;;;;;;;2.22;0.50;;;14.80;99.90;;;;;;4954337;28;20086;-76
2022/05/24 11:05:56;;;;;;;1.95;0.40;;;14.70;99.90;;;;;;4955749;28;20067;-74
2022/05/24 11:08:47;;;;;;;1.95;0.50;;;14.60;99.90;;;;;;4954447;29;20129;-75
2022/05/24 11:11:41;;;;;;;1.42;0.52;;;14.70;99.90;;;;;;4955600;29;20371;-74
2022/05/24 11:14:14;;;;;;;3.83;0.50;;;14.70;99.90;;;;;;4954592;28;20468;-75
2022/05/24 11:16:44;;;;;;;4.10;0.70;;;14.50;99.90;;;;;;4970504;28;20342;-74
2022/05/24 11:19:16;;;;;;;3.90;1.00;;;14.50;99.90;;;;;;4955317;29;20062;-75
2022/05/24 11:22:03;;;;;;;4.15;1.30;;;14.30;99.90;;;;;;4954255;29;20388;-74
2022/05/24 11:24:41;;;;;;;5.18;1.30;;;14.20;99.90;;;;;;4954763;29;20074;-73
2022/05/24 11:27:10;;;;;;;3.70;1.27;;;14.00;99.90;;;;;;4970291;28;20337;-74
2022/05/24 11:29:54;;;;;;;4.45;1.42;;;14.10;99.90;;;;;;4955678;29;20174;-73
2022/05/24 11:32:47;;;;;;;4.65;1.15;;;14.10;99.90;;;;;;4970180;28;20412;-76
2022/05/24 11:35:26;;;;;;;5.13;1.40;;;14.30;99.90;;;;;;4957343;29;20047;-81
2022/05/24 11:38:08;;;;;;;4.68;1.10;;;14.50;99.90;;;;;;4957381;28;20427;-86
2022/05/24 11:40:39;;;;;;;3.88;1.20;;;14.50;99.90;;;;;;4955284;29;20086;-80
2022/05/24 11:43:07;;;;;;;2.97;1.00;;;14.30;99.90;;;;;;4955542;29;20062;-83
2022/05/24 11:45:33;;;;;;;3.08;1.30;;;14.30;99.90;;;;;;4954955;29;20082;-85
2022/05/24 11:48:17;;;;;;;2.70;0.90;;;14.00;99.90;;;;;;4956207;29;20050;-84
2022/05/24 11:50:48;;;;;;;3.35;1.05;;;14.10;99.90;;;;;;4957306;29;20047;-80
2022/05/24 11:53:35;;;;;;;4.13;1.25;;;14.10;99.90;;;;;;4957041;28;20054;-86
2022/05/24 11:56:01;;;;;;;4.10;1.35;;;14.20;99.90;;;;;;4958228;28;20046;-83
2022/05/24 11:58:30;;;;;;;4.57;1.60;;;14.30;99.90;;;;;;4958343;29;20051;-85
2022/05/24 12:01:02;;;;;;;4.38;1.50;;;14.50;99.90;;;;;;4975324;28;20130;-82
2022/05/24 12:09:24;;;;;;;4.25;1.90;;;15.30;99.90;;;;;;4971609;29;20051;-84
2022/05/24 12:12:19;;;;;;;5.72;1.90;;;15.50;99.90;;;;;;4973344;28;20106;-82
2022/05/24 12:14:45;;;;;;;6.60;1.70;;;15.60;99.90;;;;;;4968596;28;20141;-85
2022/05/24 12:17:15;;;;;;;3.88;1.63;;;15.80;99.90;;;;;;4969838;28;20051;-86
2022/05/24 12:19:48;;;;;;;5.45;1.70;;;16.00;99.90;;;;;;4970405;29;20051;-86
2022/05/24 12:22:22;;;;;;;3.28;1.20;;;16.10;99.90;;;;;;4967121;28;20200;-84
2022/05/24 12:24:54;;;;;;;4.72;1.08;;;16.10;99.90;;;;;;4966509;29;20051;-82
2022/05/24 12:27:56;;;;;;;6.40;1.05;;;16.10;99.90;;;;;;4979496;28;20051;-86
2022/05/24 12:30:24;;;;;;;3.08;0.90;;;16.30;99.90;;;;;;4947801;29;20255;-83
2022/05/24 12:32:52;;;;;;;3.88;1.10;;;16.20;99.90;;;;;;4963043;29;20115;-81
2022/05/24 12:35:20;;;;;;;2.20;0.60;;;16.40;99.90;;;;;;4971438;29;20071;-80
2022/05/24 12:37:54;;;;;;;2.17;0.50;;;16.50;99.90;;;;;;4971513;29;20111;-80
2022/05/24 12:40:22;;;;;;;2.88;0.55;;;16.70;99.90;;;;;;4970634;28;20074;-81
2022/05/24 12:42:51;;;;;;;2.78;0.50;;;16.90;99.90;;;;;;4971513;29;20047;-80
2022/05/24 12:45:27;;;;;;;2.00;0.70;;;17.00;99.90;;;;;;4945870;29;20102;-81
2022/05/24 12:47:54;;;;;;;3.00;0.60;;;17.00;99.90;;;;;;4960011;29;20051;-80
2022/05/24 12:50:46;;;;;;;2.35;0.65;;;17.00;99.90;;;;;;4958547;29;20051;-84
2022/05/24 12:53:19;;;;;;;3.35;0.77;;;17.20;99.90;;;;;;4958088;29;20624;-82
2022/05/24 12:55:59;;;;;;;2.00;0.70;;;17.50;99.90;;;;;;4958288;29;20079;-79
2022/05/24 12:58:34;;;;;;;2.90;0.95;;;17.70;99.90;;;;;;4967284;28;20047;-80
2022/05/24 13:01:17;;;;;;;3.05;0.60;;;17.70;99.90;;;;;;4968377;28;20071;-81
2022/05/24 13:04:07;;;;;;;3.15;0.70;;;17.70;99.90;;;;;;4965535;29;20428;-81
2022/05/24 13:06:35;;;;;;;6.53;1.10;;;17.70;99.90;;;;;;4962939;29;20078;-80
2022/05/24 13:09:11;;;;;;;3.90;1.08;;;17.80;99.90;;;;;;4960082;29;20047;-83
2022/05/24 13:11:37;;;;;;;4.40;1.05;;;17.90;99.90;;;;;;4959480;29;20051;-87
2022/05/24 13:14:04;;;;;;;3.28;0.90;;;18.00;99.90;;;;;;4960354;28;20046;-84
2022/05/24 13:16:31;;;;;;;4.53;1.77;;;17.70;99.90;;;;;;4959275;29;20087;-84
2022/05/24 13:18:57;;;;;;;6.13;1.67;;;17.30;99.90;;;;;;4959636;28;20070;-87
2022/05/24 13:21:24;;;;;;;8.33;2.00;;;17.40;99.90;;;;;;4958822;29;20547;-84
2022/05/24 13:24:10;;;;;;;3.05;1.10;;;17.40;99.90;;;;;;4959784;29;20283;-80
2022/05/24 13:26:36;;;;;;;3.83;0.88;;;17.20;99.90;;;;;;4973584;28;20055;-83
2022/05/24 13:29:23;;;;;;;3.00;0.73;;;17.10;99.90;;;;;;4959960;28;20127;-86
2022/05/24 13:34:35;;;;;;;5.10;1.10;;;16.70;99.90;;;;;;4959326;28;20473;-86
2022/05/24 13:37:12;;;;;;;4.07;1.20;;;16.60;99.90;;;;;;4960420;29;20047;-90
2022/05/24 13:39:43;;;;;;;4.43;1.00;;;16.70;99.90;;;;;;4958547;28;20087;-83
2022/05/24 13:42:27;;;;;;;4.70;1.25;;;16.90;99.90;;;;;;4958897;28;20110;-87